FABL

Bram Fischer International Airport

Bloemfontain, South Africa
METAR FABL 211300Z VRB04KT CAVOK 17/M01 Q1029 NOSIG
Observed Flight Rules
Jul-21 @ 13:00 UTC (51 minutes ago) Visual Flight Rules
Wind Visibility Clouds
Variable at 4 knots 10,000+ meters
  • Clear skies
Temperatures Readings
Current 17°C / 63°F
Dewpoint -1°C / 30°F
Humidity 30%
Altimeter 30.38" Hg
Pressure 1029 hPa
Elevation 1348
METAR FABL 211300Z VRB04KT CAVOK 17/M01 Q1029 NOSIG
Observed Flight Rules
Jul-21 @ 13:00 UTC
(51 minutes ago)
VFR
Wind Visibility
Variable at 4 knots 10,000+ meters
Clouds
  • Clear skies
Temperature Dewpoint
17°C / 63°F -1°C / 30°F
Humidity Altimeter Pressure
30% 30.38" Hg 1029 hPa